sensor_id;sensor_type;location;lat;lon;timestamp;pressure;altitude;pressure_sealevel;temperature;humidity
77159;BME280;66129;45.890;13.714;2023-04-16T00:01:38;100502.31;;;3.78;98.69
77159;BME280;66129;45.890;13.714;2023-04-16T00:04:03;100495.44;;;3.76;99.62
77159;BME280;66129;45.890;13.714;2023-04-16T00:06:29;100423.97;;;3.43;99.24
77159;BME280;66129;45.890;13.714;2023-04-16T00:08:54;100505.34;;;3.90;98.94
77159;BME280;66129;45.890;13.714;2023-04-16T00:11:20;100503.00;;;3.74;98.33
77159;BME280;66129;45.890;13.714;2023-04-16T00:13:46;100421.88;;;3.15;99.11
77159;BME280;66129;45.890;13.714;2023-04-16T00:16:12;100521.94;;;3.82;99.34
77159;BME280;66129;45.890;13.714;2023-04-16T00:18:39;100463.44;;;3.57;99.80
77159;BME280;66129;45.890;13.714;2023-04-16T00:21:06;100450.19;;;3.64;100.00
77159;BME280;66129;45.890;13.714;2023-04-16T00:23:31;100451.78;;;3.62;100.00
77159;BME280;66129;45.890;13.714;2023-04-16T00:25:57;100460.31;;;3.64;100.00
77159;BME280;66129;45.890;13.714;2023-04-16T00:28:24;100494.09;;;3.84;99.73
77159;BME280;66129;45.890;13.714;2023-04-16T00:30:51;100431.00;;;3.30;98.84
77159;BME280;66129;45.890;13.714;2023-04-16T00:33:17;100443.34;;;3.23;98.98
77159;BME280;66129;45.890;13.714;2023-04-16T00:35:46;100429.47;;;3.15;100.00
77159;BME280;66129;45.890;13.714;2023-04-16T00:38:13;100445.06;;;3.24;100.00
77159;BME280;66129;45.890;13.714;2023-04-16T00:40:38;100425.22;;;3.14;100.00
77159;BME280;66129;45.890;13.714;2023-04-16T00:43:04;100478.94;;;3.46;100.00
77159;BME280;66129;45.890;13.714;2023-04-16T00:45:30;100442.81;;;3.29;100.00
77159;BME280;66129;45.890;13.714;2023-04-16T00:47:55;100476.38;;;3.26;99.98
77159;BME280;66129;45.890;13.714;2023-04-16T00:50:22;100403.44;;;2.98;100.00
77159;BME280;66129;45.890;13.714;2023-04-16T00:52:48;100456.84;;;3.42;100.00
77159;BME280;66129;45.890;13.714;2023-04-16T00:55:15;100493.13;;;3.61;100.00
77159;BME280;66129;45.890;13.714;2023-04-16T00:57:42;100495.09;;;3.48;100.00
77159;BME280;66129;45.890;13.714;2023-04-16T01:00:08;100480.56;;;3.25;100.00
77159;BME280;66129;45.890;13.714;2023-04-16T01:02:35;100398.94;;;2.74;99.97
77159;BME280;66129;45.890;13.714;2023-04-16T01:05:03;100379.66;;;2.76;100.00
77159;BME280;66129;45.890;13.714;2023-04-16T01:07:32;100509.34;;;3.46;100.00
77159;BME280;66129;45.890;13.714;2023-04-16T01:09:58;100395.25;;;2.85;100.00
77159;BME280;66129;45.890;13.714;2023-04-16T01:12:23;100427.34;;;3.05;100.00
77159;BME280;66129;45.890;13.714;2023-04-16T01:14:49;100392.09;;;2.90;100.00
77159;BME280;66129;45.890;13.714;2023-04-16T01:17:14;100455.91;;;3.21;100.00
77159;BME280;66129;45.890;13.714;2023-04-16T01:19:41;100406.50;;;3.10;100.00
77159;BME280;66129;45.890;13.714;2023-04-16T01:22:07;100438.31;;;3.24;100.00
77159;BME280;66129;45.890;13.714;2023-04-16T01:24:33;100499.63;;;3.55;100.00
77159;BME280;66129;45.890;13.714;2023-04-16T01:26:58;100495.50;;;3.38;100.00
77159;BME280;66129;45.890;13.714;2023-04-16T01:29:25;100450.34;;;3.09;100.00
77159;BME280;66129;45.890;13.714;2023-04-16T01:31:58;100469.47;;;3.22;100.00
77159;BME280;66129;45.890;13.714;2023-04-16T01:34:32;100496.38;;;3.38;100.00
77159;BME280;66129;45.890;13.714;2023-04-16T01:36:57;100510.56;;;3.54;100.00
77159;BME280;66129;45.890;13.714;2023-04-16T01:39:23;100437.88;;;3.14;100.00
77159;BME280;66129;45.890;13.714;2023-04-16T01:41:48;100422.88;;;2.99;100.00
77159;BME280;66129;45.890;13.714;2023-04-16T01:44:14;100510.09;;;3.43;100.00
77159;BME280;66129;45.890;13.714;2023-04-16T01:46:39;100503.69;;;3.51;100.00
77159;BME280;66129;45.890;13.714;2023-04-16T01:49:05;100434.69;;;2.99;100.00
77159;BME280;66129;45.890;13.714;2023-04-16T01:51:34;100430.94;;;3.10;100.00
77159;BME280;66129;45.890;13.714;2023-04-16T01:54:00;100444.28;;;3.25;100.00
77159;BME280;66129;45.890;13.714;2023-04-16T01:56:25;100479.97;;;3.30;100.00
77159;BME280;66129;45.890;13.714;2023-04-16T01:58:51;100498.09;;;3.21;100.00
77159;BME280;66129;45.890;13.714;2023-04-16T02:01:17;100496.22;;;3.35;100.00
77159;BME280;66129;45.890;13.714;2023-04-16T02:03:43;100445.84;;;3.04;100.00
77159;BME280;66129;45.890;13.714;2023-04-16T02:06:08;100441.00;;;3.08;100.00
77159;BME280;66129;45.890;13.714;2023-04-16T02:08:34;100480.38;;;3.21;100.00
77159;BME280;66129;45.890;13.714;2023-04-16T02:10:59;100452.06;;;3.10;100.00
77159;BME280;66129;45.890;13.714;2023-04-16T02:13:25;100505.03;;;3.43;100.00
77159;BME280;66129;45.890;13.714;2023-04-16T02:15:51;100497.69;;;3.49;100.00
77159;BME280;66129;45.890;13.714;2023-04-16T02:18:17;100508.78;;;3.51;100.00
77159;BME280;66129;45.890;13.714;2023-04-16T02:20:44;100508.03;;;3.54;100.00
77159;BME280;66129;45.890;13.714;2023-04-16T02:23:10;100444.66;;;3.15;100.00
77159;BME280;66129;45.890;13.714;2023-04-16T02:25:44;100448.72;;;3.30;100.00
77159;BME280;66129;45.890;13.714;2023-04-16T02:28:12;100406.63;;;3.13;100.00
77159;BME280;66129;45.890;13.714;2023-04-16T02:30:39;100498.28;;;3.63;100.00
77159;BME280;66129;45.890;13.714;2023-04-16T02:33:06;100407.34;;;3.11;100.00
77159;BME280;66129;45.890;13.714;2023-04-16T02:35:34;100496.16;;;3.53;99.95
77159;BME280;66129;45.890;13.714;2023-04-16T02:38:01;100505.97;;;3.45;100.00
77159;BME280;66129;45.890;13.714;2023-04-16T02:40:26;100439.41;;;3.10;100.00
77159;BME280;66129;45.890;13.714;2023-04-16T02:42:53;100466.03;;;3.21;100.00
77159;BME280;66129;45.890;13.714;2023-04-16T02:45:19;100477.97;;;3.42;100.00
77159;BME280;66129;45.890;13.714;2023-04-16T02:47:45;100476.97;;;3.39;100.00
77159;BME280;66129;45.890;13.714;2023-04-16T02:50:10;100503.63;;;3.69;100.00
77159;BME280;66129;45.890;13.714;2023-04-16T02:52:36;100419.00;;;3.26;100.00
77159;BME280;66129;45.890;13.714;2023-04-16T02:55:01;100420.78;;;3.47;100.00
77159;BME280;66129;45.890;13.714;2023-04-16T02:57:27;100476.59;;;3.69;100.00
77159;BME280;66129;45.890;13.714;2023-04-16T02:59:52;100488.78;;;3.98;99.93
77159;BME280;66129;45.890;13.714;2023-04-16T03:02:18;100509.50;;;4.09;99.83
77159;BME280;66129;45.890;13.714;2023-04-16T03:04:43;100454.22;;;3.80;99.29
77159;BME280;66129;45.890;13.714;2023-04-16T03:07:09;100486.13;;;3.95;99.43
77159;BME280;66129;45.890;13.714;2023-04-16T03:09:37;100439.81;;;3.79;98.85
77159;BME280;66129;45.890;13.714;2023-04-16T03:12:03;100515.13;;;4.22;98.53
77159;BME280;66129;45.890;13.714;2023-04-16T03:14:29;100478.41;;;3.92;98.92
77159;BME280;66129;45.890;13.714;2023-04-16T03:16:55;100478.16;;;3.86;98.54
77159;BME280;66129;45.890;13.714;2023-04-16T03:19:21;100420.94;;;3.52;98.82
77159;BME280;66129;45.890;13.714;2023-04-16T03:21:46;100508.69;;;4.30;98.18
77159;BME280;66129;45.890;13.714;2023-04-16T03:24:12;100517.06;;;5.14;92.35
77159;BME280;66129;45.890;13.714;2023-04-16T03:26:37;100458.41;;;4.84;93.60
77159;BME280;66129;45.890;13.714;2023-04-16T03:29:03;100462.38;;;4.56;93.22
77159;BME280;66129;45.890;13.714;2023-04-16T03:31:29;100509.97;;;4.61;93.77
77159;BME280;66129;45.890;13.714;2023-04-16T03:33:54;100501.34;;;4.36;95.04
77159;BME280;66129;45.890;13.714;2023-04-16T03:36:20;100430.56;;;3.79;95.48
77159;BME280;66129;45.890;13.714;2023-04-16T03:38:47;100457.59;;;4.85;92.19
77159;BME280;66129;45.890;13.714;2023-04-16T03:41:12;100503.78;;;5.67;90.40
77159;BME280;66129;45.890;13.714;2023-04-16T03:43:38;100525.09;;;5.71;88.66
77159;BME280;66129;45.890;13.714;2023-04-16T03:46:04;100493.75;;;5.02;90.19
77159;BME280;66129;45.890;13.714;2023-04-16T03:48:29;100522.13;;;4.90;91.31
77159;BME280;66129;45.890;13.714;2023-04-16T03:50:54;100527.63;;;5.02;91.19
77159;BME280;66129;45.890;13.714;2023-04-16T03:53:20;100491.53;;;4.87;91.92
77159;BME280;66129;45.890;13.714;2023-04-16T03:55:48;100504.50;;;4.95;91.06
77159;BME280;66129;45.890;13.714;2023-04-16T03:58:15;100549.97;;;5.11;91.43
77159;BME280;66129;45.890;13.714;2023-04-16T04:00:43;100553.78;;;5.00;90.25
77159;BME280;66129;45.890;13.714;2023-04-16T04:03:09;100508.25;;;4.82;88.71
77159;BME280;66129;45.890;13.714;2023-04-16T04:05:41;100534.94;;;5.17;90.86
77159;BME280;66129;45.890;13.714;2023-04-16T04:08:07;100558.41;;;5.32;88.03
77159;BME280;66129;45.890;13.714;2023-04-16T04:10:34;100532.13;;;5.54;87.66
77159;BME280;66129;45.890;13.714;2023-04-16T04:13:01;100496.38;;;6.23;83.11
77159;BME280;66129;45.890;13.714;2023-04-16T04:15:27;100509.72;;;6.97;80.03
77159;BME280;66129;45.890;13.714;2023-04-16T04:17:53;100510.44;;;7.21;77.21
77159;BME280;66129;45.890;13.714;2023-04-16T04:20:18;100481.13;;;7.36;76.50
77159;BME280;66129;45.890;13.714;2023-04-16T04:22:44;100558.28;;;8.20;74.57
77159;BME280;66129;45.890;13.714;2023-04-16T04:25:10;100496.94;;;8.17;73.52
77159;BME280;66129;45.890;13.714;2023-04-16T04:27:36;100506.31;;;8.18;73.06
77159;BME280;66129;45.890;13.714;2023-04-16T04:30:02;100541.34;;;8.58;72.42
77159;BME280;66129;45.890;13.714;2023-04-16T04:32:34;100472.41;;;8.22;72.31
77159;BME280;66129;45.890;13.714;2023-04-16T04:35:01;100579.06;;;8.66;72.46
77159;BME280;66129;45.890;13.714;2023-04-16T04:37:27;100526.56;;;8.45;71.93
77159;BME280;66129;45.890;13.714;2023-04-16T04:39:52;100568.75;;;8.63;72.57
77159;BME280;66129;45.890;13.714;2023-04-16T04:42:18;100578.06;;;8.61;72.62
77159;BME280;66129;45.890;13.714;2023-04-16T04:44:44;100574.75;;;8.65;72.42
77159;BME280;66129;45.890;13.714;2023-04-16T04:47:10;100530.22;;;8.54;71.12
77159;BME280;66129;45.890;13.714;2023-04-16T04:49:35;100549.66;;;8.84;69.74
77159;BME280;66129;45.890;13.714;2023-04-16T04:52:01;100581.69;;;9.06;69.37
77159;BME280;66129;45.890;13.714;2023-04-16T04:54:30;100618.28;;;9.03;70.45
77159;BME280;66129;45.890;13.714;2023-04-16T04:56:56;100496.34;;;8.63;69.33
77159;BME280;66129;45.890;13.714;2023-04-16T04:59:24;100584.59;;;9.21;69.13
77159;BME280;66129;45.890;13.714;2023-04-16T05:01:50;100498.13;;;8.67;68.74
77159;BME280;66129;45.890;13.714;2023-04-16T05:04:23;100555.56;;;9.19;69.15
77159;BME280;66129;45.890;13.714;2023-04-16T05:06:52;100557.38;;;9.24;69.12
77159;BME280;66129;45.890;13.714;2023-04-16T05:09:20;100485.81;;;8.87;69.40
77159;BME280;66129;45.890;13.714;2023-04-16T05:11:45;100503.38;;;9.11;67.41
77159;BME280;66129;45.890;13.714;2023-04-16T05:14:11;100568.22;;;9.53;67.43
77159;BME280;66129;45.890;13.714;2023-04-16T05:16:36;100574.56;;;9.71;65.92
77159;BME280;66129;45.890;13.714;2023-04-16T05:19:02;100590.28;;;9.89;66.59
77159;BME280;66129;45.890;13.714;2023-04-16T05:21:28;100579.13;;;9.86;65.46
77159;BME280;66129;45.890;13.714;2023-04-16T05:23:53;100579.16;;;9.87;65.74
77159;BME280;66129;45.890;13.714;2023-04-16T05:26:19;100563.47;;;9.71;66.27
77159;BME280;66129;45.890;13.714;2023-04-16T05:28:45;100607.50;;;9.97;67.53
77159;BME280;66129;45.890;13.714;2023-04-16T05:31:11;100600.59;;;9.92;66.44
77159;BME280;66129;45.890;13.714;2023-04-16T05:33:36;100572.19;;;9.80;65.96
77159;BME280;66129;45.890;13.714;2023-04-16T05:36:02;100617.97;;;10.06;65.87
77159;BME280;66129;45.890;13.714;2023-04-16T05:38:27;100620.78;;;10.20;65.91
77159;BME280;66129;45.890;13.714;2023-04-16T05:40:54;100610.66;;;10.26;63.89
77159;BME280;66129;45.890;13.714;2023-04-16T05:43:20;100585.69;;;10.14;63.93
77159;BME280;66129;45.890;13.714;2023-04-16T05:45:45;100632.50;;;10.53;63.67
77159;BME280;66129;45.890;13.714;2023-04-16T05:48:11;100611.97;;;10.52;62.81
77159;BME280;66129;45.890;13.714;2023-04-16T05:50:40;100565.56;;;10.34;61.88
77159;BME280;66129;45.890;13.714;2023-04-16T05:53:07;100633.00;;;10.82;62.34
77159;BME280;66129;45.890;13.714;2023-04-16T05:55:33;100610.47;;;10.63;62.59
77159;BME280;66129;45.890;13.714;2023-04-16T05:58:01;100611.38;;;10.66;62.09
77159;BME280;66129;45.890;13.714;2023-04-16T06:00:29;100654.72;;;11.04;61.95
77159;BME280;66129;45.890;13.714;2023-04-16T06:02:54;100624.63;;;10.93;62.03
77159;BME280;66129;45.890;13.714;2023-04-16T06:05:20;100587.72;;;10.84;61.36
77159;BME280;66129;45.890;13.714;2023-04-16T06:07:46;100618.56;;;10.88;61.72
77159;BME280;66129;45.890;13.714;2023-04-16T06:10:11;100605.63;;;10.79;61.99
77159;BME280;66129;45.890;13.714;2023-04-16T06:12:37;100591.69;;;10.65;61.79
77159;BME280;66129;45.890;13.714;2023-04-16T06:15:03;100612.44;;;10.80;61.92
77159;BME280;66129;45.890;13.714;2023-04-16T06:17:28;100596.94;;;10.73;62.82
77159;BME280;66129;45.890;13.714;2023-04-16T06:19:54;100600.28;;;10.69;62.67
77159;BME280;66129;45.890;13.714;2023-04-16T06:22:19;100671.00;;;11.05;61.98
77159;BME280;66129;45.890;13.714;2023-04-16T06:24:45;100663.41;;;11.12;61.81
77159;BME280;66129;45.890;13.714;2023-04-16T06:27:11;100602.03;;;10.70;63.08
77159;BME280;66129;45.890;13.714;2023-04-16T06:29:36;100640.03;;;10.93;62.70
77159;BME280;66129;45.890;13.714;2023-04-16T06:32:04;100648.66;;;10.98;63.54
77159;BME280;66129;45.890;13.714;2023-04-16T06:34:30;100642.66;;;10.98;61.12
77159;BME280;66129;45.890;13.714;2023-04-16T06:36:56;100654.91;;;11.15;62.36
77159;BME280;66129;45.890;13.714;2023-04-16T06:39:21;100654.78;;;11.07;62.52
77159;BME280;66129;45.890;13.714;2023-04-16T06:41:47;100651.66;;;11.26;62.73
77159;BME280;66129;45.890;13.714;2023-04-16T06:44:13;100610.91;;;10.91;62.57
77159;BME280;66129;45.890;13.714;2023-04-16T06:46:40;100604.00;;;10.87;61.67
77159;BME280;66129;45.890;13.714;2023-04-16T06:49:06;100615.22;;;10.92;61.51
77159;BME280;66129;45.890;13.714;2023-04-16T06:51:32;100626.69;;;11.15;60.89
77159;BME280;66129;45.890;13.714;2023-04-16T06:53:57;100596.47;;;10.98;61.65
77159;BME280;66129;45.890;13.714;2023-04-16T06:56:23;100681.91;;;11.47;60.72
77159;BME280;66129;45.890;13.714;2023-04-16T06:58:51;100637.19;;;11.31;61.22
77159;BME280;66129;45.890;13.714;2023-04-16T07:01:25;100592.38;;;11.07;61.52
77159;BME280;66129;45.890;13.714;2023-04-16T07:03:54;100602.00;;;11.23;59.99
77159;BME280;66129;45.890;13.714;2023-04-16T07:06:20;100686.66;;;11.78;60.87
77159;BME280;66129;45.890;13.714;2023-04-16T07:08:45;100643.66;;;11.62;60.02
77159;BME280;66129;45.890;13.714;2023-04-16T07:11:13;100652.34;;;11.73;59.27
77159;BME280;66129;45.890;13.714;2023-04-16T07:13:39;100680.94;;;11.97;59.17
77159;BME280;66129;45.890;13.714;2023-04-16T07:16:05;100688.72;;;12.04;60.16
77159;BME280;66129;45.890;13.714;2023-04-16T07:18:30;100680.19;;;12.05;59.43
77159;BME280;66129;45.890;13.714;2023-04-16T07:20:56;100689.66;;;12.11;58.76
77159;BME280;66129;45.890;13.714;2023-04-16T07:23:21;100696.69;;;12.23;58.79
77159;BME280;66129;45.890;13.714;2023-04-16T07:25:47;100632.94;;;11.93;58.17
77159;BME280;66129;45.890;13.714;2023-04-16T07:28:13;100651.91;;;12.05;56.61
77159;BME280;66129;45.890;13.714;2023-04-16T07:31:04;100725.22;;;12.47;56.49
77159;BME280;66129;45.890;13.714;2023-04-16T07:33:35;100666.72;;;12.25;56.91
77159;BME280;66129;45.890;13.714;2023-04-16T07:36:02;100708.13;;;12.49;57.50
77159;BME280;66129;45.890;13.714;2023-04-16T07:38:28;100687.44;;;12.40;56.72
77159;BME280;66129;45.890;13.714;2023-04-16T07:40:54;100630.59;;;12.14;58.38
77159;BME280;66129;45.890;13.714;2023-04-16T07:43:20;100683.16;;;12.41;56.18
77159;BME280;66129;45.890;13.714;2023-04-16T07:45:46;100718.59;;;12.69;57.43
77159;BME280;66129;45.890;13.714;2023-04-16T07:48:20;100655.84;;;12.50;56.36
77159;BME280;66129;45.890;13.714;2023-04-16T07:50:46;100657.56;;;12.53;56.47
77159;BME280;66129;45.890;13.714;2023-04-16T07:53:11;100669.13;;;12.91;57.16
77159;BME280;66129;45.890;13.714;2023-04-16T07:55:37;100699.22;;;13.01;55.28
77159;BME280;66129;45.890;13.714;2023-04-16T07:58:02;100686.38;;;13.02;55.95
77159;BME280;66129;45.890;13.714;2023-04-16T08:00:28;100682.19;;;13.13;54.76
77159;BME280;66129;45.890;13.714;2023-04-16T08:02:54;100723.56;;;13.41;54.81
77159;BME280;66129;45.890;13.714;2023-04-16T08:05:19;100712.34;;;13.31;53.45
77159;BME280;66129;45.890;13.714;2023-04-16T08:07:45;100696.00;;;13.26;54.68
77159;BME280;66129;45.890;13.714;2023-04-16T08:10:11;100730.41;;;13.39;54.80
77159;BME280;66129;45.890;13.714;2023-04-16T08:12:37;100653.00;;;13.13;54.94
77159;BME280;66129;45.890;13.714;2023-04-16T08:15:03;100713.47;;;13.71;54.10
77159;BME280;66129;45.890;13.714;2023-04-16T08:17:28;100673.06;;;13.63;53.27
77159;BME280;66129;45.890;13.714;2023-04-16T08:19:54;100736.97;;;14.16;53.14
77159;BME280;66129;45.890;13.714;2023-04-16T08:22:20;100661.19;;;13.96;53.16
77159;BME280;66129;45.890;13.714;2023-04-16T08:24:46;100694.91;;;14.34;51.79
77159;BME280;66129;45.890;13.714;2023-04-16T08:27:12;100728.47;;;14.37;52.02
77159;BME280;66129;45.890;13.714;2023-04-16T08:29:37;100671.53;;;14.02;50.40
77159;BME280;66129;45.890;13.714;2023-04-16T08:32:03;100738.81;;;14.54;50.88
77159;BME280;66129;45.890;13.714;2023-04-16T08:34:28;100700.06;;;14.31;51.78
77159;BME280;66129;45.890;13.714;2023-04-16T08:36:54;100753.56;;;14.91;50.50
77159;BME280;66129;45.890;13.714;2023-04-16T08:39:26;100734.66;;;15.16;50.23
77159;BME280;66129;45.890;13.714;2023-04-16T08:42:04;100701.06;;;15.15;48.57
77159;BME280;66129;45.890;13.714;2023-04-16T08:44:36;100671.81;;;15.20;49.39
77159;BME280;66129;45.890;13.714;2023-04-16T08:47:08;100657.19;;;15.13;48.70
77159;BME280;66129;45.890;13.714;2023-04-16T08:49:42;100709.66;;;15.06;48.82
77159;BME280;66129;45.890;13.714;2023-04-16T08:52:18;100710.53;;;15.19;48.65
77159;BME280;66129;45.890;13.714;2023-04-16T08:54:51;100686.44;;;15.18;48.58
77159;BME280;66129;45.890;13.714;2023-04-16T08:57:22;100701.06;;;15.15;49.17
77159;BME280;66129;45.890;13.714;2023-04-16T08:59:53;100667.47;;;15.15;48.63
77159;BME280;66129;45.890;13.714;2023-04-16T09:02:20;100698.47;;;15.18;49.39
77159;BME280;66129;45.890;13.714;2023-04-16T09:04:47;100710.56;;;15.10;47.82
77159;BME280;66129;45.890;13.714;2023-04-16T09:07:14;100680.41;;;14.83;49.07
77159;BME280;66129;45.890;13.714;2023-04-16T09:09:43;100682.13;;;14.66;48.69
77159;BME280;66129;45.890;13.714;2023-04-16T09:12:09;100672.63;;;14.62;48.41
77159;BME280;66129;45.890;13.714;2023-04-16T09:14:34;100713.06;;;14.65;48.25
77159;BME280;66129;45.890;13.714;2023-04-16T09:17:01;100708.78;;;14.91;48.99
77159;BME280;66129;45.890;13.714;2023-04-16T09:19:27;100675.25;;;14.79;48.62
77159;BME280;66129;45.890;13.714;2023-04-16T09:21:53;100702.75;;;14.77;48.72
77159;BME280;66129;45.890;13.714;2023-04-16T09:24:18;100720.81;;;14.86;49.53
77159;BME280;66129;45.890;13.714;2023-04-16T09:26:45;100719.06;;;14.67;50.31
77159;BME280;66129;45.890;13.714;2023-04-16T09:29:11;100686.41;;;14.64;49.94
77159;BME280;66129;45.890;13.714;2023-04-16T09:31:36;100702.78;;;14.84;49.67
77159;BME280;66129;45.890;13.714;2023-04-16T09:34:09;100689.84;;;14.60;49.55
77159;BME280;66129;45.890;13.714;2023-04-16T09:36:37;100712.25;;;14.88;48.08
77159;BME280;66129;45.890;13.714;2023-04-16T09:39:03;100752.72;;;15.16;48.33
77159;BME280;66129;45.890;13.714;2023-04-16T09:41:41;100765.69;;;15.39;48.81
77159;BME280;66129;45.890;13.714;2023-04-16T09:44:07;100728.59;;;15.08;48.37
77159;BME280;66129;45.890;13.714;2023-04-16T09:46:58;100758.78;;;15.35;48.77
77159;BME280;66129;45.890;13.714;2023-04-16T09:49:43;100760.50;;;15.31;47.23
77159;BME280;66129;45.890;13.714;2023-04-16T09:52:21;100681.25;;;15.03;47.84
77159;BME280;66129;45.890;13.714;2023-04-16T09:58:24;100719.19;;;15.49;47.17
77159;BME280;66129;45.890;13.714;2023-04-16T10:01:07;100677.84;;;15.33;48.32
77159;BME280;66129;45.890;13.714;2023-04-16T10:03:34;100749.28;;;15.65;48.65
77159;BME280;66129;45.890;13.714;2023-04-16T10:08:31;100740.69;;;15.56;46.42
77159;BME280;66129;45.890;13.714;2023-04-16T10:10:56;100721.75;;;15.37;47.97
77159;BME280;66129;45.890;13.714;2023-04-16T10:13:22;100744.97;;;15.82;47.84
77159;BME280;66129;45.890;13.714;2023-04-16T10:15:49;100704.38;;;16.08;47.37
77159;BME280;66129;45.890;13.714;2023-04-16T10:18:16;100749.03;;;16.62;46.47
77159;BME280;66129;45.890;13.714;2023-04-16T10:20:42;100748.16;;;16.65;45.96
77159;BME280;66129;45.890;13.714;2023-04-16T10:23:08;100740.50;;;16.39;46.26
77159;BME280;66129;45.890;13.714;2023-04-16T10:25:34;100737.91;;;16.44;45.00
77159;BME280;66129;45.890;13.714;2023-04-16T10:28:01;100675.91;;;16.17;45.99
77159;BME280;66129;45.890;13.714;2023-04-16T10:30:27;100722.22;;;16.69;44.21
77159;BME280;66129;45.890;13.714;2023-04-16T10:32:53;100701.44;;;16.82;43.89
77159;BME280;66129;45.890;13.714;2023-04-16T10:35:19;100664.59;;;16.45;44.90
77159;BME280;66129;45.890;13.714;2023-04-16T10:37:47;100747.31;;;16.58;44.30
77159;BME280;66129;45.890;13.714;2023-04-16T10:40:23;100697.38;;;16.31;44.12
77159;BME280;66129;45.890;13.714;2023-04-16T10:42:58;100681.09;;;16.12;43.53
77159;BME280;66129;45.890;13.714;2023-04-16T10:45:30;100729.41;;;16.03;44.55
77159;BME280;66129;45.890;13.714;2023-04-16T10:48:03;100692.47;;;15.44;45.67
77159;BME280;66129;45.890;13.714;2023-04-16T10:50:35;100699.34;;;15.24;46.56
77159;BME280;66129;45.890;13.714;2023-04-16T10:53:27;100664.06;;;15.05;45.66
77159;BME280;66129;45.890;13.714;2023-04-16T10:56:43;100656.31;;;14.90;45.56
77159;BME280;66129;45.890;13.714;2023-04-16T10:59:17;100701.09;;;15.46;47.43
77159;BME280;66129;45.890;13.714;2023-04-16T11:01:54;100731.22;;;15.53;46.53
77159;BME280;66129;45.890;13.714;2023-04-16T11:07:04;100689.06;;;15.29;45.79
77159;BME280;66129;45.890;13.714;2023-04-16T11:10:00;100712.28;;;15.36;45.73
77159;BME280;66129;45.890;13.714;2023-04-16T11:15:33;100699.34;;;15.67;47.45
77159;BME280;66129;45.890;13.714;2023-04-16T11:17:59;100656.25;;;15.68;44.84
77159;BME280;66129;45.890;13.714;2023-04-16T11:20:27;100652.81;;;15.70;44.64
77159;BME280;66129;45.890;13.714;2023-04-16T11:23:09;100694.97;;;15.84;44.00
77159;BME280;66129;45.890;13.714;2023-04-16T11:25:37;100706.19;;;15.76;44.54
77159;BME280;66129;45.890;13.714;2023-04-16T11:28:03;100686.44;;;15.56;45.98
77159;BME280;66129;45.890;13.714;2023-04-16T11:30:37;100670.09;;;15.27;45.23
77159;BME280;66129;45.890;13.714;2023-04-16T11:33:09;100684.72;;;15.44;44.38
77159;BME280;66129;45.890;13.714;2023-04-16T11:35:35;100729.50;;;15.68;43.98
77159;BME280;66129;45.890;13.714;2023-04-16T11:38:01;100673.56;;;15.29;44.25
77159;BME280;66129;45.890;13.714;2023-04-16T11:40:32;100731.19;;;15.65;45.16
77159;BME280;66129;45.890;13.714;2023-04-16T11:43:01;100724.31;;;15.70;45.47
77159;BME280;66129;45.890;13.714;2023-04-16T11:51:29;100646.84;;;15.39;44.49
77159;BME280;66129;45.890;13.714;2023-04-16T11:53:55;100681.22;;;15.72;44.36
77159;BME280;66129;45.890;13.714;2023-04-16T11:56:44;100731.13;;;16.01;43.78
77159;BME280;66129;45.890;13.714;2023-04-16T12:01:45;100691.53;;;15.85;44.36
77159;BME280;66129;45.890;13.714;2023-04-16T12:04:13;100691.59;;;15.67;43.19
77159;BME280;66129;45.890;13.714;2023-04-16T12:09:36;100703.66;;;15.68;45.07
77159;BME280;66129;45.890;13.714;2023-04-16T12:12:02;100739.75;;;15.91;45.03
77159;BME280;66129;45.890;13.714;2023-04-16T12:14:28;100697.63;;;15.66;46.00
77159;BME280;66129;45.890;13.714;2023-04-16T12:16:55;100683.81;;;15.63;44.95
77159;BME280;66129;45.890;13.714;2023-04-16T12:19:20;100678.66;;;15.67;44.64
77159;BME280;66129;45.890;13.714;2023-04-16T12:21:48;100657.16;;;15.57;42.02
77159;BME280;66129;45.890;13.714;2023-04-16T12:24:15;100653.63;;;15.80;42.96
77159;BME280;66129;45.890;13.714;2023-04-16T12:26:46;100720.69;;;16.28;45.02
77159;BME280;66129;45.890;13.714;2023-04-16T12:29:33;100675.97;;;15.93;45.21
77159;BME280;66129;45.890;13.714;2023-04-16T12:31:59;100675.09;;;16.03;45.03
77159;BME280;66129;45.890;13.714;2023-04-16T12:34:24;100725.81;;;16.47;44.77
77159;BME280;66129;45.890;13.714;2023-04-16T12:37:06;100688.75;;;16.39;45.07
77159;BME280;66129;45.890;13.714;2023-04-16T12:39:34;100668.94;;;16.31;45.27
77159;BME280;66129;45.890;13.714;2023-04-16T12:42:02;100706.88;;;16.38;45.65
77159;BME280;66129;45.890;13.714;2023-04-16T12:44:35;100688.81;;;16.21;45.76
77159;BME280;66129;45.890;13.714;2023-04-16T12:47:01;100690.63;;;15.94;44.54
77159;BME280;66129;45.890;13.714;2023-04-16T12:49:26;100664.06;;;15.59;45.89
77159;BME280;66129;45.890;13.714;2023-04-16T12:51:51;100714.81;;;15.66;45.30
77159;BME280;66129;45.890;13.714;2023-04-16T12:54:17;100683.00;;;15.58;46.12
77159;BME280;66129;45.890;13.714;2023-04-16T12:56:42;100682.09;;;15.62;46.17
77159;BME280;66129;45.890;13.714;2023-04-16T12:59:08;100707.06;;;15.78;46.19
77159;BME280;66129;45.890;13.714;2023-04-16T13:01:34;100702.75;;;15.78;46.97
77159;BME280;66129;45.890;13.714;2023-04-16T13:04:01;100707.91;;;15.83;46.80
77159;BME280;66129;45.890;13.714;2023-04-16T13:06:27;100674.38;;;15.60;46.05
77159;BME280;66129;45.890;13.714;2023-04-16T13:08:52;100699.38;;;15.54;47.28